Time;durP1;ratioP1;P1;durP2;ratioP2;P2;SDS_P1;SDS_P2;PMS_P1;PMS_P2;Temp;Humidity;BMP_temperature;BMP_pressure;BME280_temperature;BME280_humidity;BME280_pressure;Samples;Min_cycle;Max_cycle;Signal;HPM_P1;HPM_P2
2023/12/26 00:02:06;;;;;;;;;;;;;;;;;;5141652;28;19949;-56
2023/12/26 00:04:37;;;;;;;;;;;;;;;;;;5124477;28;19918;-56
2023/12/26 00:07:08;;;;;;;;;;;;;;;;;;5141199;28;20287;-57
2023/12/26 00:09:40;;;;;;;;;;;;;;;;;;5140237;28;19926;-56
2023/12/26 00:12:11;;;;;;;;;;;;;;;;;;5124328;28;19921;-56
2023/12/26 00:14:42;;;;;;;;;;;;;;;;;;5140293;28;19941;-57
2023/12/26 00:17:13;;;;;;;;;;;;;;;;;;5140380;28;19918;-56
2023/12/26 00:19:45;;;;;;;;;;;;;;;;;;5140458;28;20412;-56
2023/12/26 00:22:17;;;;;;;;;;;;;;;;;;5141099;28;19922;-57
2023/12/26 00:24:49;;;;;;;;;;;;;;;;;;5140579;28;20357;-57
2023/12/26 00:27:20;;;;;;;;;;;;;;;;;;5124181;28;20029;-57
2023/12/26 00:29:51;;;;;;;;;;;;;;;;;;5140776;28;20004;-57
2023/12/26 00:32:22;;;;;;;;;;;;;;;;;;5137340;28;19926;-57
2023/12/26 00:34:53;;;;;;;;;;;;;;;;;;5125158;28;19918;-56
2023/12/26 00:37:24;;;;;;;;;;;;;;;;;;5141216;28;19918;-57
2023/12/26 00:39:55;;;;;;;;;;;;;;;;;;5124950;28;19922;-56
2023/12/26 00:42:27;;;;;;;;;;;;;;;;;;5141195;28;20282;-56
2023/12/26 00:44:58;;;;;;;;;;;;;;;;;;5141173;28;21047;-56
2023/12/26 00:47:29;;;;;;;;;;;;;;;;;;5131231;28;20280;-56
2023/12/26 00:50:00;;;;;;;;;;;;;;;;;;5147094;28;19918;-56
2023/12/26 00:52:35;;;;;;;;;;;;;;;;;;5140762;28;19918;-56
2023/12/26 00:55:06;;;;;;;;;;;;;;;;;;5125399;28;19922;-56
2023/12/26 00:57:37;;;;;;;;;;;;;;;;;;5128452;28;20400;-56
2023/12/26 01:00:08;;;;;;;;;;;;;;;;;;5144268;28;19929;-56
2023/12/26 01:02:39;;;;;;;;;;;;;;;;;;5143695;28;20126;-55
2023/12/26 01:05:10;;;;;;;;;;;;;;;;;;5144820;28;19998;-56
2023/12/26 01:07:41;;;;;;;;;;;;;;;;;;5144618;28;19922;-56
2023/12/26 01:10:12;;;;;;;;;;;;;;;;;;5128368;28;19924;-55
2023/12/26 01:12:43;;;;;;;;;;;;;;;;;;5144007;28;19926;-56
2023/12/26 01:15:14;;;;;;;;;;;;;;;;;;5143922;28;19925;-56
2023/12/26 01:17:45;;;;;;;;;;;;;;;;;;5144564;28;20370;-56
2023/12/26 01:20:16;;;;;;;;;;;;;;;;;;5144241;28;19921;-55
2023/12/26 01:22:47;;;;;;;;;;;;;;;;;;5128248;28;20277;-55
2023/12/26 01:25:18;;;;;;;;;;;;;;;;;;5143681;28;19918;-56
2023/12/26 01:27:49;;;;;;;;;;;;;;;;;;5144421;28;19914;-56
2023/12/26 01:30:20;;;;;;;;;;;;;;;;;;5143998;28;19929;-56
2023/12/26 01:32:51;;;;;;;;;;;;;;;;;;5144005;28;19921;-56
2023/12/26 01:35:22;;;;;;;;;;;;;;;;;;5143591;28;19921;-57
2023/12/26 01:37:53;;;;;;;;;;;;;;;;;;5143922;28;19924;-56
2023/12/26 01:40:24;;;;;;;;;;;;;;;;;;5143739;28;19925;-56
2023/12/26 01:42:55;;;;;;;;;;;;;;;;;;5143738;28;20318;-56
2023/12/26 01:45:27;;;;;;;;;;;;;;;;;;5143583;28;19918;-56
2023/12/26 01:47:58;;;;;;;;;;;;;;;;;;5143876;28;19973;-57
2023/12/26 01:50:29;;;;;;;;;;;;;;;;;;5143771;28;19922;-56
2023/12/26 01:53:00;;;;;;;;;;;;;;;;;;5143854;28;20298;-55
2023/12/26 01:55:31;;;;;;;;;;;;;;;;;;5143128;28;19917;-56
2023/12/26 01:58:02;;;;;;;;;;;;;;;;;;5143333;28;20005;-56
2023/12/26 02:00:33;;;;;;;;;;;;;;;;;;5159495;28;20365;-56
2023/12/26 02:03:04;;;;;;;;;;;;;;;;;;5143402;28;19925;-57
2023/12/26 02:05:35;;;;;;;;;;;;;;;;;;5143130;28;19921;-56
2023/12/26 02:08:06;;;;;;;;;;;;;;;;;;5142953;28;19925;-56
2023/12/26 02:10:37;;;;;;;;;;;;;;;;;;5143114;28;19961;-56
2023/12/26 02:13:07;;;;;;;;;;;;;;;;;;5142656;28;19917;-56
2023/12/26 02:15:38;;;;;;;;;;;;;;;;;;5143265;28;19921;-56
2023/12/26 02:18:09;;;;;;;;;;;;;;;;;;5127037;28;20349;-55
2023/12/26 02:20:40;;;;;;;;;;;;;;;;;;5143016;28;19918;-56
2023/12/26 02:23:12;;;;;;;;;;;;;;;;;;5142526;28;19918;-56
2023/12/26 02:25:43;;;;;;;;;;;;;;;;;;5142654;28;20000;-56
2023/12/26 02:28:14;;;;;;;;;;;;;;;;;;5143127;28;19914;-56
2023/12/26 02:30:45;;;;;;;;;;;;;;;;;;5142549;28;20440;-56
2023/12/26 02:33:16;;;;;;;;;;;;;;;;;;5127275;28;19922;-55
2023/12/26 02:35:47;;;;;;;;;;;;;;;;;;5142155;28;20285;-56
2023/12/26 02:38:18;;;;;;;;;;;;;;;;;;5142954;28;19926;-57
2023/12/26 02:40:51;;;;;;;;;;;;;;;;;;5146870;28;19971;-56
2023/12/26 02:43:22;;;;;;;;;;;;;;;;;;5150623;28;19961;-57
2023/12/26 02:45:53;;;;;;;;;;;;;;;;;;5146133;28;20065;-57
2023/12/26 02:48:24;;;;;;;;;;;;;;;;;;5126369;28;19989;-57
2023/12/26 02:50:55;;;;;;;;;;;;;;;;;;5142556;28;20021;-57
2023/12/26 02:53:26;;;;;;;;;;;;;;;;;;5126328;28;20363;-57
2023/12/26 02:55:57;;;;;;;;;;;;;;;;;;5126345;28;19922;-57
2023/12/26 02:58:29;;;;;;;;;;;;;;;;;;5126084;28;20014;-56
2023/12/26 03:01:00;;;;;;;;;;;;;;;;;;5126222;28;20017;-57
2023/12/26 03:03:31;;;;;;;;;;;;;;;;;;5140325;28;19942;-57
2023/12/26 03:06:02;;;;;;;;;;;;;;;;;;5142457;28;19918;-58
2023/12/26 03:08:33;;;;;;;;;;;;;;;;;;5142029;28;19917;-57
2023/12/26 03:11:04;;;;;;;;;;;;;;;;;;5126220;28;19940;-57
2023/12/26 03:13:35;;;;;;;;;;;;;;;;;;5125709;28;20004;-57
2023/12/26 03:16:06;;;;;;;;;;;;;;;;;;5142259;28;19922;-57
2023/12/26 03:18:37;;;;;;;;;;;;;;;;;;5141275;28;19930;-57
2023/12/26 03:21:08;;;;;;;;;;;;;;;;;;5142011;28;20344;-57
2023/12/26 03:23:39;;;;;;;;;;;;;;;;;;5142046;28;20354;-57
2023/12/26 03:26:10;;;;;;;;;;;;;;;;;;5124341;28;19996;-57
2023/12/26 03:28:41;;;;;;;;;;;;;;;;;;5141399;28;19972;-57
2023/12/26 03:31:12;;;;;;;;;;;;;;;;;;5141597;28;19922;-57
2023/12/26 03:33:43;;;;;;;;;;;;;;;;;;5141213;28;19925;-56
2023/12/26 03:36:14;;;;;;;;;;;;;;;;;;5141488;28;19925;-57
2023/12/26 03:38:45;;;;;;;;;;;;;;;;;;5146206;28;20369;-57
2023/12/26 03:41:16;;;;;;;;;;;;;;;;;;5130202;28;20262;-57
2023/12/26 03:43:47;;;;;;;;;;;;;;;;;;5124396;28;19965;-56
2023/12/26 03:46:18;;;;;;;;;;;;;;;;;;5141602;28;19918;-56
2023/12/26 03:48:49;;;;;;;;;;;;;;;;;;5141933;28;19992;-56
2023/12/26 03:51:20;;;;;;;;;;;;;;;;;;5141259;28;19950;-57
2023/12/26 03:53:51;;;;;;;;;;;;;;;;;;5141611;28;19944;-57
2023/12/26 03:56:22;;;;;;;;;;;;;;;;;;5147060;28;19949;-57
2023/12/26 03:58:53;;;;;;;;;;;;;;;;;;5141291;28;20611;-56
2023/12/26 04:01:24;;;;;;;;;;;;;;;;;;5121205;28;20030;-56
2023/12/26 04:03:55;;;;;;;;;;;;;;;;;;5141569;28;20281;-56
2023/12/26 04:06:26;;;;;;;;;;;;;;;;;;5141142;28;20041;-58
2023/12/26 04:08:57;;;;;;;;;;;;;;;;;;5144699;28;19922;-57
2023/12/26 04:11:30;;;;;;;;;;;;;;;;;;5141638;28;19953;-57
2023/12/26 04:14:01;;;;;;;;;;;;;;;;;;5147164;28;19945;-57
2023/12/26 04:16:33;;;;;;;;;;;;;;;;;;5143633;28;19952;-56
2023/12/26 04:19:03;;;;;;;;;;;;;;;;;;5151983;28;20231;-57
2023/12/26 04:21:34;;;;;;;;;;;;;;;;;;5125250;28;19929;-57
2023/12/26 04:24:06;;;;;;;;;;;;;;;;;;5125545;28;19922;-57
2023/12/26 04:26:37;;;;;;;;;;;;;;;;;;5124678;28;19918;-57
2023/12/26 04:29:08;;;;;;;;;;;;;;;;;;5125607;28;19983;-58
2023/12/26 04:31:39;;;;;;;;;;;;;;;;;;5144971;28;19957;-57
2023/12/26 04:34:10;;;;;;;;;;;;;;;;;;5144757;28;20155;-58
2023/12/26 04:36:41;;;;;;;;;;;;;;;;;;5128752;28;19918;-57
2023/12/26 04:39:12;;;;;;;;;;;;;;;;;;5144847;28;20266;-58
2023/12/26 04:41:43;;;;;;;;;;;;;;;;;;5145014;28;19980;-57
2023/12/26 04:44:14;;;;;;;;;;;;;;;;;;5128077;28;19921;-57
2023/12/26 04:46:45;;;;;;;;;;;;;;;;;;5144847;28;19918;-57
2023/12/26 04:49:16;;;;;;;;;;;;;;;;;;5145111;28;19918;-57
2023/12/26 04:51:47;;;;;;;;;;;;;;;;;;5144284;28;19961;-57
2023/12/26 04:54:18;;;;;;;;;;;;;;;;;;5144446;28;20455;-58
2023/12/26 04:56:49;;;;;;;;;;;;;;;;;;5145242;28;20392;-57
2023/12/26 04:59:20;;;;;;;;;;;;;;;;;;5128247;28;19921;-58
2023/12/26 05:01:51;;;;;;;;;;;;;;;;;;5128401;28;19925;-58
2023/12/26 05:04:22;;;;;;;;;;;;;;;;;;5130639;28;19918;-57
2023/12/26 05:06:53;;;;;;;;;;;;;;;;;;5144273;28;19918;-57
2023/12/26 05:09:24;;;;;;;;;;;;;;;;;;5146272;28;20022;-57
2023/12/26 05:11:55;;;;;;;;;;;;;;;;;;5128504;28;20001;-56
2023/12/26 05:14:26;;;;;;;;;;;;;;;;;;5143959;28;20442;-58
2023/12/26 05:16:57;;;;;;;;;;;;;;;;;;5143094;28;19922;-58
2023/12/26 05:19:28;;;;;;;;;;;;;;;;;;5144356;28;19926;-58
2023/12/26 05:21:59;;;;;;;;;;;;;;;;;;5144155;28;20296;-57
2023/12/26 05:24:30;;;;;;;;;;;;;;;;;;5141081;28;20425;-57
2023/12/26 05:27:01;;;;;;;;;;;;;;;;;;5144582;28;19921;-57
2023/12/26 05:29:32;;;;;;;;;;;;;;;;;;5128154;28;19926;-56
2023/12/26 05:32:07;;;;;;;;;;;;;;;;;;5152334;28;19926;-57
2023/12/26 05:34:38;;;;;;;;;;;;;;;;;;5144247;28;19980;-57
2023/12/26 05:37:09;;;;;;;;;;;;;;;;;;5144306;28;19918;-57
2023/12/26 05:39:40;;;;;;;;;;;;;;;;;;5127910;28;19944;-57
2023/12/26 05:42:11;;;;;;;;;;;;;;;;;;5143052;28;20017;-57
2023/12/26 05:44:42;;;;;;;;;;;;;;;;;;5143157;28;19918;-57
2023/12/26 05:47:13;;;;;;;;;;;;;;;;;;5144136;28;19945;-58
2023/12/26 05:49:44;;;;;;;;;;;;;;;;;;5127844;28;19929;-58
2023/12/26 05:52:15;;;;;;;;;;;;;;;;;;5142796;28;19918;-58
2023/12/26 05:54:46;;;;;;;;;;;;;;;;;;5142071;28;20124;-57
2023/12/26 05:57:17;;;;;;;;;;;;;;;;;;5125081;28;19925;-58
2023/12/26 05:59:48;;;;;;;;;;;;;;;;;;5141323;28;19922;-58
2023/12/26 06:02:19;;;;;;;;;;;;;;;;;;5141239;28;19918;-58
2023/12/26 06:04:50;;;;;;;;;;;;;;;;;;5125714;28;19925;-58
2023/12/26 06:07:21;;;;;;;;;;;;;;;;;;5141974;28;20008;-58
2023/12/26 06:09:52;;;;;;;;;;;;;;;;;;5143617;28;20001;-58
2023/12/26 06:12:23;;;;;;;;;;;;;;;;;;5143292;28;19918;-58
2023/12/26 06:14:54;;;;;;;;;;;;;;;;;;5144243;28;20305;-58
2023/12/26 06:17:26;;;;;;;;;;;;;;;;;;5143213;28;19988;-58
2023/12/26 06:19:57;;;;;;;;;;;;;;;;;;5142955;28;19953;-58
2023/12/26 06:22:28;;;;;;;;;;;;;;;;;;5143026;28;19960;-58
2023/12/26 06:24:59;;;;;;;;;;;;;;;;;;5146577;28;19917;-58
2023/12/26 06:27:30;;;;;;;;;;;;;;;;;;5150898;28;19922;-58
2023/12/26 06:30:01;;;;;;;;;;;;;;;;;;5148274;28;19929;-58
2023/12/26 06:32:32;;;;;;;;;;;;;;;;;;5149281;28;19943;-58
2023/12/26 06:35:03;;;;;;;;;;;;;;;;;;5142408;28;19969;-58
2023/12/26 06:37:34;;;;;;;;;;;;;;;;;;5142816;28;20009;-58
2023/12/26 06:40:05;;;;;;;;;;;;;;;;;;5142665;28;20076;-58
2023/12/26 06:42:36;;;;;;;;;;;;;;;;;;5126529;28;20007;-58
2023/12/26 06:45:07;;;;;;;;;;;;;;;;;;5142718;28;20344;-57
2023/12/26 06:47:40;;;;;;;;;;;;;;;;;;5126340;28;19928;-58
2023/12/26 06:50:11;;;;;;;;;;;;;;;;;;5142823;28;19925;-58
2023/12/26 06:52:42;;;;;;;;;;;;;;;;;;5126558;28;19917;-58
2023/12/26 06:55:13;;;;;;;;;;;;;;;;;;5142300;28;20012;-58
2023/12/26 06:57:44;;;;;;;;;;;;;;;;;;5142210;28;19965;-58
2023/12/26 07:00:17;;;;;;;;;;;;;;;;;;5142883;28;20032;-58
2023/12/26 07:02:48;;;;;;;;;;;;;;;;;;5126512;28;19922;-57
2023/12/26 07:05:19;;;;;;;;;;;;;;;;;;5141775;28;20336;-57
2023/12/26 07:07:50;;;;;;;;;;;;;;;;;;5142235;28;19958;-57
2023/12/26 07:10:21;;;;;;;;;;;;;;;;;;5142261;28;19925;-57
2023/12/26 07:12:52;;;;;;;;;;;;;;;;;;5142492;28;19996;-57
2023/12/26 07:15:25;;;;;;;;;;;;;;;;;;5142750;28;20001;-57
2023/12/26 07:17:56;;;;;;;;;;;;;;;;;;5142159;28;19917;-58
2023/12/26 07:20:27;;;;;;;;;;;;;;;;;;5126087;28;19918;-59
2023/12/26 07:22:58;;;;;;;;;;;;;;;;;;5126359;28;19925;-57
2023/12/26 07:25:30;;;;;;;;;;;;;;;;;;5142509;28;20374;-58
2023/12/26 07:28:01;;;;;;;;;;;;;;;;;;5141879;28;19922;-58
2023/12/26 07:30:32;;;;;;;;;;;;;;;;;;5141912;28;19918;-58
2023/12/26 07:33:03;;;;;;;;;;;;;;;;;;5126144;28;20273;-58
2023/12/26 07:35:34;;;;;;;;;;;;;;;;;;5131939;28;19918;-57
2023/12/26 07:38:05;;;;;;;;;;;;;;;;;;5141958;28;20078;-58
2023/12/26 07:40:39;;;;;;;;;;;;;;;;;;5141909;28;19930;-58
2023/12/26 07:43:10;;;;;;;;;;;;;;;;;;5141747;28;19941;-58
2023/12/26 07:45:41;;;;;;;;;;;;;;;;;;5125217;28;19922;-59
2023/12/26 07:48:12;;;;;;;;;;;;;;;;;;5142099;28;19914;-59
2023/12/26 07:50:43;;;;;;;;;;;;;;;;;;5140993;28;19926;-60
2023/12/26 07:53:15;;;;;;;;;;;;;;;;;;5141467;28;19918;-58
2023/12/26 07:55:46;;;;;;;;;;;;;;;;;;5124936;28;19974;-58
2023/12/26 07:58:17;;;;;;;;;;;;;;;;;;5125485;28;19925;-58
2023/12/26 08:00:48;;;;;;;;;;;;;;;;;;5125624;28;20060;-57
2023/12/26 08:03:19;;;;;;;;;;;;;;;;;;5141123;28;19973;-57
2023/12/26 08:05:50;;;;;;;;;;;;;;;;;;5162465;28;19969;-57
2023/12/26 08:08:22;;;;;;;;;;;;;;;;;;5131734;28;20318;-57
2023/12/26 08:10:53;;;;;;;;;;;;;;;;;;5159385;28;20299;-58
2023/12/26 08:13:24;;;;;;;;;;;;;;;;;;5147294;28;19924;-58
2023/12/26 08:15:55;;;;;;;;;;;;;;;;;;5131756;28;20436;-59
2023/12/26 08:18:28;;;;;;;;;;;;;;;;;;5147291;28;19922;-57
2023/12/26 08:20:59;;;;;;;;;;;;;;;;;;5131312;28;19924;-57
2023/12/26 08:23:30;;;;;;;;;;;;;;;;;;5160432;28;19918;-57
2023/12/26 08:26:01;;;;;;;;;;;;;;;;;;5147988;28;20382;-57
2023/12/26 08:28:32;;;;;;;;;;;;;;;;;;5131359;28;19976;-56
2023/12/26 08:31:03;;;;;;;;;;;;;;;;;;5147452;28;19922;-57
2023/12/26 08:33:37;;;;;;;;;;;;;;;;;;5152288;28;20441;-57
2023/12/26 08:36:08;;;;;;;;;;;;;;;;;;5147559;28;20449;-56
2023/12/26 08:38:41;;;;;;;;;;;;;;;;;;5131365;28;19992;-57
2023/12/26 08:41:13;;;;;;;;;;;;;;;;;;5147525;28;19918;-56
2023/12/26 08:43:44;;;;;;;;;;;;;;;;;;5158995;28;19922;-58
2023/12/26 08:46:16;;;;;;;;;;;;;;;;;;5148734;28;20282;-56
2023/12/26 08:48:47;;;;;;;;;;;;;;;;;;5147918;28;20000;-56
2023/12/26 08:51:19;;;;;;;;;;;;;;;;;;5147538;28;20052;-57
2023/12/26 08:53:50;;;;;;;;;;;;;;;;;;5147507;28;20395;-58
2023/12/26 08:56:21;;;;;;;;;;;;;;;;;;5147907;28;20360;-56
2023/12/26 08:58:52;;;;;;;;;;;;;;;;;;5147356;28;19922;-56
2023/12/26 09:01:23;;;;;;;;;;;;;;;;;;5147524;28;19918;-55
2023/12/26 09:03:55;;;;;;;;;;;;;;;;;;5145858;28;19972;-55
2023/12/26 09:06:26;;;;;;;;;;;;;;;;;;5147109;28;19969;-56
2023/12/26 09:08:57;;;;;;;;;;;;;;;;;;5152501;28;19996;-56
2023/12/26 09:11:28;;;;;;;;;;;;;;;;;;5154200;28;19945;-56
2023/12/26 09:13:59;;;;;;;;;;;;;;;;;;5147281;28;19918;-57
2023/12/26 09:16:30;;;;;;;;;;;;;;;;;;5128085;28;20031;-56
2023/12/26 09:19:02;;;;;;;;;;;;;;;;;;5128004;28;20009;-55
2023/12/26 09:21:33;;;;;;;;;;;;;;;;;;5144113;28;19944;-57
2023/12/26 09:24:04;;;;;;;;;;;;;;;;;;5144022;28;20005;-57
2023/12/26 09:26:35;;;;;;;;;;;;;;;;;;5160332;28;20384;-57
2023/12/26 09:29:06;;;;;;;;;;;;;;;;;;5144053;28;19932;-56
2023/12/26 09:31:37;;;;;;;;;;;;;;;;;;5143683;28;20004;-56
2023/12/26 09:34:09;;;;;;;;;;;;;;;;;;5127990;28;19969;-56
2023/12/26 09:36:40;;;;;;;;;;;;;;;;;;5127080;28;20035;-56
2023/12/26 09:39:11;;;;;;;;;;;;;;;;;;5143642;28;19996;-56
2023/12/26 09:41:42;;;;;;;;;;;;;;;;;;5143821;28;19918;-56
2023/12/26 09:44:13;;;;;;;;;;;;;;;;;;5143346;28;20301;-56
2023/12/26 09:46:44;;;;;;;;;;;;;;;;;;5143833;28;19922;-56
2023/12/26 09:49:15;;;;;;;;;;;;;;;;;;5143094;28;19925;-57
2023/12/26 09:51:46;;;;;;;;;;;;;;;;;;5138511;28;19921;-57
2023/12/26 09:54:17;;;;;;;;;;;;;;;;;;5129054;28;19977;-57
2023/12/26 09:56:48;;;;;;;;;;;;;;;;;;5127583;28;19922;-57
2023/12/26 09:59:19;;;;;;;;;;;;;;;;;;5143193;28;19984;-58
2023/12/26 10:01:50;;;;;;;;;;;;;;;;;;5127281;28;19944;-58
2023/12/26 10:04:21;;;;;;;;;;;;;;;;;;5127545;28;20297;-57
2023/12/26 10:06:53;;;;;;;;;;;;;;;;;;5127311;28;19918;-58
2023/12/26 10:09:24;;;;;;;;;;;;;;;;;;5143299;28;19922;-58
2023/12/26 10:11:55;;;;;;;;;;;;;;;;;;5143085;28;19925;-58
2023/12/26 10:14:26;;;;;;;;;;;;;;;;;;5126863;28;20397;-58
2023/12/26 10:16:57;;;;;;;;;;;;;;;;;;5143181;28;19994;-58
2023/12/26 10:19:28;;;;;;;;;;;;;;;;;;5142980;28;19947;-57
2023/12/26 10:21:59;;;;;;;;;;;;;;;;;;5142668;28;19990;-57
2023/12/26 10:24:30;;;;;;;;;;;;;;;;;;5126319;28;19924;-57
2023/12/26 10:27:01;;;;;;;;;;;;;;;;;;5142791;28;20362;-57
2023/12/26 10:29:32;;;;;;;;;;;;;;;;;;5142785;28;19932;-58
2023/12/26 10:32:03;;;;;;;;;;;;;;;;;;5146325;28;20353;-56
2023/12/26 10:34:34;;;;;;;;;;;;;;;;;;5150427;28;20013;-56
2023/12/26 10:37:05;;;;;;;;;;;;;;;;;;5142446;28;19997;-56
2023/12/26 10:39:36;;;;;;;;;;;;;;;;;;5147114;28;20342;-56
2023/12/26 10:42:08;;;;;;;;;;;;;;;;;;5152497;28;20001;-57
2023/12/26 10:44:38;;;;;;;;;;;;;;;;;;5142353;28;19973;-57
2023/12/26 10:47:09;;;;;;;;;;;;;;;;;;5142347;28;20395;-56
2023/12/26 10:49:40;;;;;;;;;;;;;;;;;;5142570;28;19980;-57
2023/12/26 10:52:11;;;;;;;;;;;;;;;;;;5141952;28;20405;-57
2023/12/26 10:54:42;;;;;;;;;;;;;;;;;;5142843;28;19918;-58
2023/12/26 10:57:13;;;;;;;;;;;;;;;;;;5141972;28;19925;-56
2023/12/26 10:59:44;;;;;;;;;;;;;;;;;;5126287;28;19929;-56
2023/12/26 11:02:15;;;;;;;;;;;;;;;;;;5146579;28;20403;-57
2023/12/26 11:04:46;;;;;;;;;;;;;;;;;;5150459;28;19994;-57
2023/12/26 11:07:17;;;;;;;;;;;;;;;;;;5138219;28;19918;-57
2023/12/26 11:09:48;;;;;;;;;;;;;;;;;;5142054;28;19917;-58
2023/12/26 11:12:19;;;;;;;;;;;;;;;;;;5142290;28;20949;-58
2023/12/26 11:14:50;;;;;;;;;;;;;;;;;;5141547;28;19988;-57
2023/12/26 11:17:21;;;;;;;;;;;;;;;;;;5141851;28;20714;-57
2023/12/26 11:19:52;;;;;;;;;;;;;;;;;;5141587;28;19932;-57
2023/12/26 11:22:23;;;;;;;;;;;;;;;;;;5128133;28;19918;-57
2023/12/26 11:24:54;;;;;;;;;;;;;;;;;;5141360;28;19925;-58
2023/12/26 11:27:25;;;;;;;;;;;;;;;;;;5125693;28;19922;-57
2023/12/26 11:29:57;;;;;;;;;;;;;;;;;;5125222;28;19969;-57
2023/12/26 11:32:27;;;;;;;;;;;;;;;;;;5144545;28;19918;-57
2023/12/26 11:34:58;;;;;;;;;;;;;;;;;;5142023;28;19968;-57
2023/12/26 11:37:29;;;;;;;;;;;;;;;;;;5141487;28;19922;-57
2023/12/26 11:40:00;;;;;;;;;;;;;;;;;;5140893;28;20344;-57
2023/12/26 11:42:31;;;;;;;;;;;;;;;;;;5141750;28;19922;-57
2023/12/26 11:45:02;;;;;;;;;;;;;;;;;;5141560;28;19929;-57
2023/12/26 11:47:33;;;;;;;;;;;;;;;;;;5141077;28;19944;-57
2023/12/26 11:50:04;;;;;;;;;;;;;;;;;;5126103;28;19924;-57
2023/12/26 11:52:35;;;;;;;;;;;;;;;;;;5141187;28;20037;-59
2023/12/26 11:55:06;;;;;;;;;;;;;;;;;;5125527;28;19918;-58
2023/12/26 11:57:37;;;;;;;;;;;;;;;;;;5141766;28;19928;-58
2023/12/26 12:00:08;;;;;;;;;;;;;;;;;;5141178;28;20360;-57
2023/12/26 12:02:39;;;;;;;;;;;;;;;;;;5125299;28;19972;-57
2023/12/26 12:05:10;;;;;;;;;;;;;;;;;;5141149;28;19918;-60
2023/12/26 12:07:41;;;;;;;;;;;;;;;;;;5141480;28;19918;-59
2023/12/26 12:10:12;;;;;;;;;;;;;;;;;;5141135;28;19945;-57
2023/12/26 12:12:44;;;;;;;;;;;;;;;;;;5141553;28;19984;-57
2023/12/26 12:15:15;;;;;;;;;;;;;;;;;;5125106;28;20242;-57
2023/12/26 12:17:46;;;;;;;;;;;;;;;;;;5123071;28;19929;-57
2023/12/26 12:20:16;;;;;;;;;;;;;;;;;;5140847;28;20282;-58
2023/12/26 12:22:47;;;;;;;;;;;;;;;;;;5141567;28;19960;-58
2023/12/26 12:25:18;;;;;;;;;;;;;;;;;;5141025;28;19948;-58
2023/12/26 12:27:49;;;;;;;;;;;;;;;;;;5141416;28;19918;-58
2023/12/26 12:30:21;;;;;;;;;;;;;;;;;;5141321;28;20357;-58
2023/12/26 12:32:52;;;;;;;;;;;;;;;;;;5140874;28;19957;-58
2023/12/26 12:35:23;;;;;;;;;;;;;;;;;;5119877;28;19919;-58
2023/12/26 12:37:54;;;;;;;;;;;;;;;;;;5135611;28;19922;-59
2023/12/26 12:40:25;;;;;;;;;;;;;;;;;;5140735;28;20377;-57
2023/12/26 12:42:56;;;;;;;;;;;;;;;;;;5141054;28;19926;-58
2023/12/26 12:45:27;;;;;;;;;;;;;;;;;;5141377;28;19921;-57
2023/12/26 12:47:58;;;;;;;;;;;;;;;;;;5153641;28;19925;-57
2023/12/26 12:50:29;;;;;;;;;;;;;;;;;;5125922;28;19957;-57
2023/12/26 12:53:00;;;;;;;;;;;;;;;;;;5157046;28;19921;-58
2023/12/26 12:55:31;;;;;;;;;;;;;;;;;;5144258;28;19918;-57
2023/12/26 12:58:02;;;;;;;;;;;;;;;;;;5144591;28;20270;-57
2023/12/26 13:00:33;;;;;;;;;;;;;;;;;;5144198;28;19973;-57
2023/12/26 13:03:04;;;;;;;;;;;;;;;;;;5144391;28;19972;-57
2023/12/26 13:05:35;;;;;;;;;;;;;;;;;;5143908;28;20381;-58
2023/12/26 13:08:06;;;;;;;;;;;;;;;;;;5128457;28;20151;-59
2023/12/26 13:10:37;;;;;;;;;;;;;;;;;;5128385;28;19942;-58
2023/12/26 13:13:08;;;;;;;;;;;;;;;;;;5128543;28;19924;-58
2023/12/26 13:15:39;;;;;;;;;;;;;;;;;;5151043;28;19929;-57
2023/12/26 13:18:10;;;;;;;;;;;;;;;;;;5143975;28;20392;-56
2023/12/26 13:20:41;;;;;;;;;;;;;;;;;;5144341;28;19929;-55
2023/12/26 13:23:12;;;;;;;;;;;;;;;;;;5144517;28;19918;-55
2023/12/26 13:25:43;;;;;;;;;;;;;;;;;;5131005;28;19917;-56
2023/12/26 13:28:14;;;;;;;;;;;;;;;;;;5145936;28;19925;-57
2023/12/26 13:30:45;;;;;;;;;;;;;;;;;;5143344;28;19925;-57
2023/12/26 13:33:16;;;;;;;;;;;;;;;;;;5143428;28;19918;-58
2023/12/26 13:35:47;;;;;;;;;;;;;;;;;;5127556;28;19949;-56
2023/12/26 13:38:18;;;;;;;;;;;;;;;;;;5143193;28;20557;-57
2023/12/26 13:40:49;;;;;;;;;;;;;;;;;;5127811;28;19918;-56
2023/12/26 13:43:20;;;;;;;;;;;;;;;;;;5143928;28;19930;-58
2023/12/26 13:45:51;;;;;;;;;;;;;;;;;;5143340;28;19966;-57
2023/12/26 13:48:22;;;;;;;;;;;;;;;;;;5143628;28;20262;-56
2023/12/26 13:50:53;;;;;;;;;;;;;;;;;;5127210;28;19925;-56
2023/12/26 13:53:24;;;;;;;;;;;;;;;;;;5143386;28;20272;-57
2023/12/26 13:55:55;;;;;;;;;;;;;;;;;;5143217;28;19969;-57
2023/12/26 13:58:26;;;;;;;;;;;;;;;;;;5143182;28;19929;-57
2023/12/26 14:00:57;;;;;;;;;;;;;;;;;;5147567;28;20397;-57
2023/12/26 14:03:28;;;;;;;;;;;;;;;;;;5126849;28;19921;-57
2023/12/26 14:05:59;;;;;;;;;;;;;;;;;;5143255;28;20032;-57
2023/12/26 14:08:30;;;;;;;;;;;;;;;;;;5129070;28;20009;-57
2023/12/26 14:11:01;;;;;;;;;;;;;;;;;;5143096;28;19918;-57
2023/12/26 14:13:32;;;;;;;;;;;;;;;;;;5147838;28;19922;-57
2023/12/26 14:16:04;;;;;;;;;;;;;;;;;;5133734;28;20355;-56
2023/12/26 14:18:35;;;;;;;;;;;;;;;;;;5143204;28;19933;-57
2023/12/26 14:21:06;;;;;;;;;;;;;;;;;;5133572;28;20020;-57
2023/12/26 14:23:37;;;;;;;;;;;;;;;;;;5142469;28;20388;-56
2023/12/26 14:26:08;;;;;;;;;;;;;;;;;;5129868;28;19914;-57
2023/12/26 14:28:39;;;;;;;;;;;;;;;;;;5150582;28;19953;-57
2023/12/26 14:31:10;;;;;;;;;;;;;;;;;;5125429;28;19920;-57
2023/12/26 14:33:41;;;;;;;;;;;;;;;;;;5142383;28;20344;-57
2023/12/26 14:36:12;;;;;;;;;;;;;;;;;;5141762;28;19917;-56
2023/12/26 14:38:43;;;;;;;;;;;;;;;;;;5141749;28;19977;-57
2023/12/26 14:41:14;;;;;;;;;;;;;;;;;;5141261;28;20337;-58
2023/12/26 14:43:45;;;;;;;;;;;;;;;;;;5128740;28;19988;-56
2023/12/26 14:46:16;;;;;;;;;;;;;;;;;;5144408;28;19941;-58
2023/12/26 14:48:47;;;;;;;;;;;;;;;;;;5152046;28;19921;-56
2023/12/26 14:51:18;;;;;;;;;;;;;;;;;;5143431;28;20383;-57
2023/12/26 14:53:49;;;;;;;;;;;;;;;;;;5141477;28;19918;-57
2023/12/26 14:56:20;;;;;;;;;;;;;;;;;;5142040;28;20424;-56
2023/12/26 14:58:51;;;;;;;;;;;;;;;;;;5127999;28;19941;-57
2023/12/26 15:01:22;;;;;;;;;;;;;;;;;;5125965;28;20384;-56
2023/12/26 15:03:53;;;;;;;;;;;;;;;;;;5125953;28;19918;-58
2023/12/26 15:06:24;;;;;;;;;;;;;;;;;;5141801;28;20449;-58
2023/12/26 15:08:55;;;;;;;;;;;;;;;;;;5142149;28;19924;-58
2023/12/26 15:11:28;;;;;;;;;;;;;;;;;;5141959;28;19930;-57
2023/12/26 15:13:59;;;;;;;;;;;;;;;;;;5141548;28;19921;-58
2023/12/26 15:16:30;;;;;;;;;;;;;;;;;;5141543;28;19918;-57
2023/12/26 15:19:01;;;;;;;;;;;;;;;;;;5141485;28;19929;-58
2023/12/26 15:21:33;;;;;;;;;;;;;;;;;;5141781;28;19966;-56
2023/12/26 15:24:04;;;;;;;;;;;;;;;;;;5141468;28;20345;-56
2023/12/26 15:26:35;;;;;;;;;;;;;;;;;;5152585;28;19918;-56
2023/12/26 15:29:06;;;;;;;;;;;;;;;;;;5141614;28;19928;-56
2023/12/26 15:31:37;;;;;;;;;;;;;;;;;;5141450;28;20419;-56
2023/12/26 15:34:08;;;;;;;;;;;;;;;;;;5140529;28;19957;-58
2023/12/26 15:36:41;;;;;;;;;;;;;;;;;;5141612;28;20407;-56
2023/12/26 15:39:12;;;;;;;;;;;;;;;;;;5141530;28;20388;-58
2023/12/26 15:41:43;;;;;;;;;;;;;;;;;;5141714;28;19922;-56
2023/12/26 15:44:14;;;;;;;;;;;;;;;;;;5125163;28;20366;-57
2023/12/26 15:46:46;;;;;;;;;;;;;;;;;;5124979;28;19925;-57
2023/12/26 15:49:17;;;;;;;;;;;;;;;;;;5140913;28;19961;-59
2023/12/26 15:51:48;;;;;;;;;;;;;;;;;;5140900;28;19922;-59
2023/12/26 15:54:19;;;;;;;;;;;;;;;;;;5140094;28;20055;-60
2023/12/26 15:56:50;;;;;;;;;;;;;;;;;;5140850;28;20281;-60
2023/12/26 15:59:21;;;;;;;;;;;;;;;;;;5113829;28;19926;-60
2023/12/26 16:01:52;;;;;;;;;;;;;;;;;;5140846;28;19918;-60
2023/12/26 16:04:23;;;;;;;;;;;;;;;;;;5125182;28;20370;-60
2023/12/26 16:06:54;;;;;;;;;;;;;;;;;;5125395;28;19948;-60
2023/12/26 16:09:28;;;;;;;;;;;;;;;;;;5124903;28;19930;-58
2023/12/26 16:11:59;;;;;;;;;;;;;;;;;;5140762;28;19965;-59
2023/12/26 16:14:30;;;;;;;;;;;;;;;;;;5125599;28;20554;-59
2023/12/26 16:17:01;;;;;;;;;;;;;;;;;;5125301;28;20806;-59
2023/12/26 16:19:32;;;;;;;;;;;;;;;;;;5140907;28;19926;-59
2023/12/26 16:22:04;;;;;;;;;;;;;;;;;;5125242;28;19942;-59
2023/12/26 16:24:35;;;;;;;;;;;;;;;;;;5124881;28;20431;-58
2023/12/26 16:27:06;;;;;;;;;;;;;;;;;;5145185;28;19921;-58
2023/12/26 16:29:37;;;;;;;;;;;;;;;;;;5144979;28;19926;-59
2023/12/26 16:32:13;;;;;;;;;;;;;;;;;;5143931;28;19931;-59
2023/12/26 16:34:44;;;;;;;;;;;;;;;;;;5145267;28;19922;-60
2023/12/26 16:37:15;;;;;;;;;;;;;;;;;;5144946;28;19925;-60
2023/12/26 16:39:46;;;;;;;;;;;;;;;;;;5128471;28;19926;-60
2023/12/26 16:42:17;;;;;;;;;;;;;;;;;;5144676;28;19922;-63
2023/12/26 16:44:48;;;;;;;;;;;;;;;;;;5144788;28;19925;-60
2023/12/26 16:47:19;;;;;;;;;;;;;;;;;;5128770;28;20358;-59
2023/12/26 16:49:51;;;;;;;;;;;;;;;;;;5145081;28;19925;-59
2023/12/26 16:52:22;;;;;;;;;;;;;;;;;;5128753;28;20358;-58
2023/12/26 16:54:54;;;;;;;;;;;;;;;;;;5144653;28;19921;-58
2023/12/26 16:57:29;;;;;;;;;;;;;;;;;;5144328;28;19929;-60
2023/12/26 17:00:00;;;;;;;;;;;;;;;;;;5144810;28;20358;-60
2023/12/26 17:02:35;;;;;;;;;;;;;;;;;;5144636;28;19949;-61
2023/12/26 17:05:06;;;;;;;;;;;;;;;;;;5144291;28;19925;-60
2023/12/26 17:07:37;;;;;;;;;;;;;;;;;;5143579;28;19922;-61
2023/12/26 17:10:08;;;;;;;;;;;;;;;;;;5159613;28;19953;-62
2023/12/26 17:12:39;;;;;;;;;;;;;;;;;;5144466;28;19922;-61